Time;durP1;ratioP1;P1;durP2;ratioP2;P2;SDS_P1;SDS_P2;PMS_P1;PMS_P2;Temp;Humidity;BMP_temperature;BMP_pressure;BME280_temperature;BME280_humidity;BME280_pressure;Samples;Min_cycle;Max_cycle;Signal;HPM_P1;HPM_P2
2022/08/09 00:01:08;;;;;;;2.73;2.07;;;20.90;99.90;;;;;;5069712;28;20256;-66
2022/08/09 00:03:36;;;;;;;3.40;1.70;;;20.90;99.90;;;;;;5068245;28;20228;-67
2022/08/09 00:06:23;;;;;;;4.43;2.10;;;20.90;99.90;;;;;;5062900;28;20267;-66
2022/08/09 00:08:50;;;;;;;2.27;1.90;;;20.80;99.90;;;;;;5069757;28;20285;-67
2022/08/09 00:11:20;;;;;;;2.67;1.93;;;20.70;99.90;;;;;;5069633;28;20200;-67
2022/08/09 00:13:51;;;;;;;3.60;2.20;;;20.50;99.90;;;;;;5063964;28;20199;-67
2022/08/09 00:16:18;;;;;;;2.67;2.10;;;20.30;99.90;;;;;;5071451;28;20218;-67
2022/08/09 00:19:03;;;;;;;4.03;2.00;;;20.20;99.90;;;;;;5069656;28;20197;-67
2022/08/09 00:21:37;;;;;;;2.30;2.10;;;20.20;99.90;;;;;;5069859;28;20194;-67
2022/08/09 00:24:23;;;;;;;2.50;2.03;;;20.30;99.90;;;;;;5050899;28;20224;-67
2022/08/09 00:26:52;;;;;;;2.00;1.80;;;20.40;99.90;;;;;;5067722;28;20194;-67
2022/08/09 00:29:19;;;;;;;2.20;1.90;;;20.30;99.90;;;;;;5069870;28;20222;-67
2022/08/09 00:32:06;;;;;;;2.57;2.07;;;20.20;99.90;;;;;;5070001;28;20190;-67
2022/08/09 00:34:33;;;;;;;3.20;1.97;;;20.10;99.90;;;;;;5069161;28;20312;-67
2022/08/09 00:36:59;;;;;;;4.07;2.03;;;19.90;99.90;;;;;;5067164;28;20252;-66
2022/08/09 00:39:27;;;;;;;4.33;2.13;;;19.70;99.90;;;;;;5069210;28;20247;-68
2022/08/09 00:42:13;;;;;;;2.40;2.20;;;19.50;99.90;;;;;;5061993;28;20279;-68
2022/08/09 00:45:00;;;;;;;2.77;2.00;;;19.60;99.90;;;;;;5069031;28;20218;-67
2022/08/09 00:47:41;;;;;;;2.40;1.90;;;19.50;99.90;;;;;;5068267;28;20374;-66
2022/08/09 00:50:09;;;;;;;2.47;1.80;;;19.40;99.90;;;;;;5062479;28;20226;-65
2022/08/09 00:52:41;;;;;;;3.73;2.03;;;19.20;99.90;;;;;;5068818;28;20248;-66
2022/08/09 00:55:08;;;;;;;2.43;1.93;;;19.30;99.90;;;;;;5068313;28;20271;-67
2022/08/09 00:57:55;;;;;;;4.07;2.07;;;19.40;99.90;;;;;;5062168;28;20198;-65
2022/08/09 01:00:25;;;;;;;2.00;1.80;;;19.30;99.90;;;;;;5051266;28;20717;-68
2022/08/09 01:03:29;;;;;;;2.80;2.20;;;19.30;99.90;;;;;;5065954;28;20275;-67
2022/08/09 01:06:13;;;;;;;2.17;1.97;;;19.10;99.90;;;;;;5068059;28;20244;-67
2022/08/09 01:09:17;;;;;;;2.57;2.03;;;19.50;99.90;;;;;;5064536;28;20198;-66
2022/08/09 01:12:02;;;;;;;2.40;2.00;;;19.60;99.90;;;;;;5063923;28;20202;-67
2022/08/09 01:14:39;;;;;;;6.30;2.47;;;19.70;99.90;;;;;;5053868;28;20695;-67
2022/08/09 01:17:20;;;;;;;2.27;1.97;;;19.70;99.90;;;;;;5051536;28;20724;-67
2022/08/09 01:20:07;;;;;;;2.37;1.90;;;19.70;99.90;;;;;;5050702;28;20199;-66
2022/08/09 01:22:53;;;;;;;2.57;2.10;;;19.80;99.90;;;;;;5045393;28;20275;-67
2022/08/09 01:25:39;;;;;;;3.37;2.10;;;19.80;99.90;;;;;;5050092;28;20503;-66
2022/08/09 01:28:14;;;;;;;2.50;2.00;;;19.90;99.90;;;;;;5050441;28;20206;-66
2022/08/09 01:30:42;;;;;;;2.17;1.97;;;19.90;99.90;;;;;;5051930;28;20277;-66
2022/08/09 01:33:22;;;;;;;3.87;2.23;;;20.00;99.90;;;;;;5050265;28;20222;-67
2022/08/09 01:36:07;;;;;;;3.87;2.30;;;20.10;99.90;;;;;;5049833;28;20221;-67
2022/08/09 01:38:38;;;;;;;2.83;2.00;;;20.10;99.90;;;;;;5050004;28;20816;-66
2022/08/09 01:41:12;;;;;;;2.67;2.00;;;20.00;99.90;;;;;;5050554;28;20203;-67
2022/08/09 01:43:43;;;;;;;2.10;1.90;;;19.90;99.90;;;;;;5050008;28;20198;-67
2022/08/09 01:46:33;;;;;;;4.70;2.07;;;19.70;99.90;;;;;;5049713;28;20302;-67
2022/08/09 01:49:12;;;;;;;2.37;2.17;;;19.60;99.90;;;;;;5070061;28;20209;-66
2022/08/09 01:51:47;;;;;;;2.20;2.00;;;19.60;99.90;;;;;;5052613;28;20190;-67
2022/08/09 01:54:24;;;;;;;2.83;2.13;;;19.60;99.90;;;;;;5070019;28;20680;-67
2022/08/09 01:56:53;;;;;;;3.17;2.00;;;19.50;99.90;;;;;;5050697;28;20195;-66
2022/08/09 01:59:23;;;;;;;4.53;2.20;;;19.50;99.90;;;;;;5050209;28;20205;-66
2022/08/09 02:01:53;;;;;;;2.90;2.13;;;19.60;99.90;;;;;;5050330;28;20294;-66
2022/08/09 02:04:29;;;;;;;2.23;1.93;;;19.70;99.90;;;;;;5049661;28;20268;-66
2022/08/09 02:07:15;;;;;;;2.57;2.27;;;19.70;99.90;;;;;;5049842;28;20877;-67
2022/08/09 02:10:16;;;;;;;2.73;2.10;;;19.50;99.90;;;;;;5050384;28;20195;-66
2022/08/09 02:12:44;;;;;;;2.63;1.93;;;19.50;99.90;;;;;;5032379;28;20198;-67
2022/08/09 02:15:12;;;;;;;2.90;2.20;;;19.30;99.90;;;;;;5049803;28;20214;-67
2022/08/09 02:17:45;;;;;;;4.17;2.50;;;19.20;99.90;;;;;;5049895;28;20264;-67
2022/08/09 02:20:37;;;;;;;2.63;2.13;;;19.10;99.90;;;;;;5050023;28;20206;-65
2022/08/09 02:23:31;;;;;;;3.27;2.50;;;19.10;99.90;;;;;;5052416;28;20194;-67
2022/08/09 02:26:11;;;;;;;3.00;2.30;;;19.10;99.90;;;;;;5049219;28;20250;-67
2022/08/09 02:28:56;;;;;;;4.17;2.43;;;19.10;99.90;;;;;;5049823;28;20195;-68
2022/08/09 02:31:30;;;;;;;3.07;2.17;;;19.00;99.90;;;;;;5064962;28;20214;-66
2022/08/09 02:34:09;;;;;;;4.93;2.30;;;19.00;99.90;;;;;;5059712;28;20248;-67
2022/08/09 02:36:59;;;;;;;3.30;2.20;;;19.10;99.90;;;;;;5053729;28;20199;-66
2022/08/09 02:39:29;;;;;;;3.43;1.93;;;19.10;99.90;;;;;;5053521;28;20682;-67
2022/08/09 02:42:04;;;;;;;3.43;2.20;;;19.00;99.90;;;;;;5053123;28;20659;-65
2022/08/09 02:44:39;;;;;;;6.50;2.40;;;18.90;99.90;;;;;;5053043;28;20685;-66
2022/08/09 02:47:10;;;;;;;3.70;2.40;;;19.00;99.90;;;;;;5053278;28;20333;-67
2022/08/09 02:49:46;;;;;;;2.43;2.23;;;19.00;99.90;;;;;;5053257;28;20191;-67
2022/08/09 02:52:32;;;;;;;2.80;2.10;;;18.90;99.90;;;;;;5053800;28;20226;-66
2022/08/09 02:55:02;;;;;;;2.40;2.00;;;18.70;99.90;;;;;;5052740;28;20222;-67
2022/08/09 02:57:47;;;;;;;3.17;2.27;;;18.50;99.90;;;;;;5053170;28;20202;-68
2022/08/09 03:00:37;;;;;;;2.40;2.20;;;18.40;99.90;;;;;;5053116;28;20195;-66
2022/08/09 03:03:25;;;;;;;2.60;2.13;;;18.30;99.90;;;;;;5053116;28;20222;-66
2022/08/09 03:06:14;;;;;;;2.43;2.13;;;18.20;99.90;;;;;;5053160;28;20517;-66
2022/08/09 03:08:44;;;;;;;3.37;2.50;;;18.20;99.90;;;;;;5052806;28;20222;-67
2022/08/09 03:11:15;;;;;;;4.17;2.70;;;18.10;99.90;;;;;;5052885;28;20198;-67
2022/08/09 03:14:02;;;;;;;3.30;2.40;;;18.20;99.90;;;;;;5052473;28;20565;-67
2022/08/09 03:16:31;;;;;;;2.70;2.23;;;18.10;99.90;;;;;;5057368;28;20226;-67
2022/08/09 03:18:58;;;;;;;2.77;2.30;;;18.10;99.90;;;;;;5035074;28;20573;-67
2022/08/09 03:21:28;;;;;;;2.87;2.20;;;18.00;99.90;;;;;;5052722;28;20222;-67
2022/08/09 03:24:05;;;;;;;3.87;2.43;;;17.90;99.90;;;;;;5052736;28;20190;-66
2022/08/09 03:26:37;;;;;;;2.70;2.30;;;17.90;99.90;;;;;;5055894;28;20225;-67
2022/08/09 03:29:11;;;;;;;4.97;2.50;;;17.80;99.90;;;;;;5052722;28;20194;-67
2022/08/09 03:31:50;;;;;;;4.83;2.37;;;17.60;99.90;;;;;;5052373;28;20614;-68
2022/08/09 03:34:26;;;;;;;2.83;2.50;;;17.50;99.90;;;;;;5051819;28;20201;-66
2022/08/09 03:36:53;;;;;;;4.00;2.20;;;17.50;99.90;;;;;;5052730;28;20202;-66
2022/08/09 03:39:28;;;;;;;3.10;2.00;;;17.50;99.90;;;;;;5052551;28;20277;-68
2022/08/09 03:42:03;;;;;;;3.00;2.53;;;17.40;99.90;;;;;;5052090;28;20658;-67
2022/08/09 03:44:32;;;;;;;2.93;2.37;;;17.40;99.90;;;;;;5051743;28;20690;-67
2022/08/09 03:46:59;;;;;;;2.93;2.53;;;17.40;99.90;;;;;;5052211;28;20191;-66
2022/08/09 03:49:27;;;;;;;4.97;2.40;;;17.40;99.90;;;;;;5052031;28;20197;-66
2022/08/09 03:51:59;;;;;;;3.83;2.20;;;17.20;99.90;;;;;;5051976;28;20697;-66
2022/08/09 03:54:36;;;;;;;3.63;2.37;;;17.20;99.90;;;;;;5051963;28;20252;-67
2022/08/09 03:57:10;;;;;;;3.97;2.60;;;17.20;99.90;;;;;;5034725;28;20205;-66
2022/08/09 03:59:48;;;;;;;3.80;2.60;;;17.20;99.90;;;;;;5051800;28;20195;-66
2022/08/09 04:02:22;;;;;;;3.10;2.60;;;17.30;99.90;;;;;;5052439;28;20203;-67
2022/08/09 04:04:55;;;;;;;2.73;2.30;;;17.30;99.90;;;;;;5051781;28;20230;-67
2022/08/09 04:07:21;;;;;;;3.10;2.40;;;17.40;99.90;;;;;;5051761;28;20233;-67
2022/08/09 04:10:08;;;;;;;3.37;2.30;;;17.40;99.90;;;;;;5051786;28;20252;-66
2022/08/09 04:12:48;;;;;;;2.70;2.30;;;17.40;99.90;;;;;;5038950;28;20216;-66
2022/08/09 04:15:19;;;;;;;4.23;2.53;;;17.50;99.90;;;;;;5049661;28;20768;-68
2022/08/09 04:18:06;;;;;;;4.40;2.50;;;17.50;99.90;;;;;;5051728;28;20202;-67
2022/08/09 04:20:33;;;;;;;3.83;2.50;;;17.60;99.90;;;;;;5051578;28;20477;-66
2022/08/09 04:22:59;;;;;;;4.03;2.77;;;17.70;99.90;;;;;;5051247;28;20685;-67
2022/08/09 04:25:27;;;;;;;3.00;2.20;;;17.70;99.90;;;;;;5050884;28;20219;-67
2022/08/09 04:27:55;;;;;;;3.50;2.57;;;17.50;99.90;;;;;;5051522;28;20199;-66
2022/08/09 04:30:28;;;;;;;2.80;2.30;;;17.50;99.90;;;;;;5071177;28;20194;-67
2022/08/09 04:32:55;;;;;;;3.07;2.33;;;17.50;99.90;;;;;;5063839;28;20245;-66
2022/08/09 04:35:22;;;;;;;3.63;2.60;;;17.40;99.90;;;;;;5050776;28;20222;-67
2022/08/09 04:37:49;;;;;;;3.50;3.10;;;17.40;99.90;;;;;;5057514;28;20202;-68
2022/08/09 04:40:16;;;;;;;4.47;2.73;;;17.50;99.90;;;;;;5071056;28;20198;-66
2022/08/09 04:42:54;;;;;;;3.63;2.50;;;17.80;99.90;;;;;;5053375;28;20605;-67
2022/08/09 04:45:22;;;;;;;4.00;2.73;;;17.90;99.90;;;;;;5050505;28;20215;-67
2022/08/09 04:47:49;;;;;;;4.27;2.50;;;18.00;99.90;;;;;;5050726;28;20241;-67
2022/08/09 04:50:29;;;;;;;2.97;2.30;;;18.10;99.90;;;;;;5050776;28;20634;-67
2022/08/09 04:53:06;;;;;;;5.17;2.57;;;18.30;99.90;;;;;;5051115;28;20201;-67
2022/08/09 04:55:40;;;;;;;4.57;2.67;;;18.50;99.90;;;;;;5050002;28;20219;-66
2022/08/09 04:58:26;;;;;;;6.40;2.50;;;18.50;99.90;;;;;;5050885;28;20206;-65
2022/08/09 05:00:54;;;;;;;3.83;2.57;;;18.50;99.90;;;;;;5050396;28;20688;-67
2022/08/09 05:03:21;;;;;;;4.80;2.80;;;18.60;99.90;;;;;;5050748;28;20198;-67
2022/08/09 05:06:11;;;;;;;3.07;2.60;;;18.60;99.90;;;;;;5050102;28;20642;-66
2022/08/09 05:08:53;;;;;;;3.73;2.97;;;18.60;99.90;;;;;;5035330;28;20195;-67
2022/08/09 05:11:26;;;;;;;4.87;2.50;;;18.80;99.90;;;;;;5050407;28;20191;-67
2022/08/09 05:14:04;;;;;;;2.90;2.43;;;18.80;99.90;;;;;;5050506;28;20198;-67
2022/08/09 05:16:33;;;;;;;4.07;3.03;;;18.80;99.90;;;;;;5049992;28;20799;-67
2022/08/09 05:19:20;;;;;;;3.27;2.73;;;18.70;99.90;;;;;;5050301;28;20198;-66
2022/08/09 05:21:52;;;;;;;5.07;3.00;;;18.70;99.90;;;;;;5050268;28;20752;-67
2022/08/09 05:24:23;;;;;;;3.77;3.00;;;18.80;99.90;;;;;;5050248;28;20197;-67
2022/08/09 05:26:51;;;;;;;4.63;2.60;;;18.80;99.90;;;;;;5050048;28;20225;-67
2022/08/09 05:29:18;;;;;;;4.23;2.40;;;19.00;99.90;;;;;;5068251;28;20723;-67
2022/08/09 05:31:48;;;;;;;3.03;2.40;;;18.90;99.90;;;;;;5070523;28;20228;-67
2022/08/09 05:34:25;;;;;;;3.03;2.70;;;19.00;99.90;;;;;;5066461;28;20255;-66
2022/08/09 05:37:02;;;;;;;3.77;2.90;;;19.10;99.90;;;;;;5050038;28;20576;-67
2022/08/09 05:39:37;;;;;;;5.33;2.30;;;19.10;99.90;;;;;;5050374;28;20198;-68
2022/08/09 05:42:13;;;;;;;6.57;2.50;;;19.20;99.90;;;;;;5050078;28;20190;-67
2022/08/09 05:44:48;;;;;;;4.77;2.73;;;19.40;99.90;;;;;;5049789;28;20230;-69
2022/08/09 05:47:17;;;;;;;4.43;2.50;;;19.70;99.90;;;;;;5050018;28;20187;-67
2022/08/09 05:49:44;;;;;;;4.73;2.63;;;19.80;99.90;;;;;;5050261;28;20199;-67
2022/08/09 05:52:30;;;;;;;4.00;2.70;;;19.90;99.90;;;;;;5065721;28;20719;-67
2022/08/09 05:54:58;;;;;;;2.80;2.50;;;20.10;99.90;;;;;;5069846;28;20297;-66
2022/08/09 05:57:36;;;;;;;4.93;2.63;;;20.30;99.90;;;;;;5070282;28;20243;-67
2022/08/09 06:00:30;;;;;;;5.07;2.60;;;20.40;99.90;;;;;;5067407;28;20626;-66
2022/08/09 06:03:00;;;;;;;4.80;2.63;;;20.40;99.90;;;;;;5050149;28;20195;-67
2022/08/09 06:05:31;;;;;;;5.17;2.50;;;20.50;99.90;;;;;;5049359;28;20227;-68
2022/08/09 06:08:17;;;;;;;5.00;2.60;;;20.50;99.90;;;;;;5051289;28;20253;-67
2022/08/09 06:10:54;;;;;;;3.93;2.57;;;20.60;99.90;;;;;;5053760;28;20226;-67
2022/08/09 06:13:21;;;;;;;5.17;2.80;;;20.60;99.90;;;;;;5053719;28;20183;-67
2022/08/09 06:15:49;;;;;;;3.93;2.73;;;20.60;99.90;;;;;;5053358;28;20725;-66
2022/08/09 06:18:18;;;;;;;3.47;2.60;;;20.70;99.90;;;;;;5051239;28;20285;-68
2022/08/09 06:20:50;;;;;;;4.63;3.00;;;20.80;99.90;;;;;;5052291;28;20410;-67
2022/08/09 06:23:24;;;;;;;5.83;2.80;;;20.90;99.90;;;;;;5035705;28;20586;-66
2022/08/09 06:26:11;;;;;;;5.25;2.58;;;21.00;99.90;;;;;;5051556;28;20237;-67
2022/08/09 06:28:38;;;;;;;4.18;2.70;;;21.00;99.90;;;;;;5052345;28;20260;-67
2022/08/09 06:31:09;;;;;;;4.32;2.42;;;21.30;99.90;;;;;;5052242;28;20245;-66
2022/08/09 06:33:36;;;;;;;3.97;2.63;;;21.30;99.90;;;;;;5060441;28;20194;-65
2022/08/09 06:36:08;;;;;;;4.03;2.22;;;21.20;99.90;;;;;;5055288;28;20436;-67
2022/08/09 06:38:37;;;;;;;3.65;2.50;;;21.30;99.90;;;;;;5052632;28;20199;-67
2022/08/09 06:41:12;;;;;;;3.65;2.55;;;21.40;99.90;;;;;;5035678;28;20241;-67
2022/08/09 06:43:46;;;;;;;3.78;2.70;;;21.50;99.90;;;;;;5051793;28;20202;-68
2022/08/09 06:46:15;;;;;;;3.20;2.53;;;21.50;99.90;;;;;;5051554;28;20219;-67
2022/08/09 06:49:01;;;;;;;3.53;2.60;;;21.70;99.90;;;;;;5052208;28;20260;-66
2022/08/09 06:51:28;;;;;;;2.30;2.10;;;21.80;99.90;;;;;;5070594;28;20670;-65
2022/08/09 06:53:56;;;;;;;3.38;2.08;;;22.10;99.90;;;;;;5065121;28;20636;-67
2022/08/09 06:56:27;;;;;;;4.55;2.55;;;22.40;99.90;;;;;;5051875;28;20233;-67
2022/08/09 06:58:57;;;;;;;3.80;2.28;;;22.50;99.90;;;;;;5051611;28;20199;-67
2022/08/09 07:01:44;;;;;;;5.72;2.85;;;22.70;99.90;;;;;;5051897;28;20207;-67
2022/08/09 07:04:23;;;;;;;3.67;2.20;;;22.90;99.90;;;;;;5051390;28;20194;-67
2022/08/09 07:06:52;;;;;;;3.90;2.30;;;23.00;99.90;;;;;;5034597;28;20248;-67
2022/08/09 07:09:27;;;;;;;4.80;2.28;;;23.10;99.90;;;;;;5051724;28;20194;-67
2022/08/09 07:12:14;;;;;;;3.50;2.50;;;23.30;99.90;;;;;;5051969;28;20202;-67
2022/08/09 07:14:47;;;;;;;3.35;2.30;;;23.90;99.90;;;;;;5057017;28;20301;-68
2022/08/09 07:17:19;;;;;;;3.03;2.30;;;24.50;98.70;;;;;;5035309;28;1071896;-68
2022/08/09 07:19:47;;;;;;;4.53;2.15;;;24.90;97.90;;;;;;5054854;28;20203;-68
2022/08/09 07:22:23;;;;;;;2.75;2.20;;;25.50;97.40;;;;;;5055703;28;20654;-68
2022/08/09 07:25:01;;;;;;;4.32;2.00;;;25.80;96.60;;;;;;5059059;28;20601;-67
2022/08/09 07:27:35;;;;;;;4.35;2.00;;;26.00;96.20;;;;;;5056546;28;20186;-67
2022/08/09 07:30:18;;;;;;;5.57;1.92;;;26.10;96.30;;;;;;5055633;28;20712;-67
2022/08/09 07:32:47;;;;;;;4.00;2.10;;;26.40;95.90;;;;;;5062868;28;20210;-67
2022/08/09 07:35:17;;;;;;;5.93;1.85;;;26.70;95.30;;;;;;5061896;28;20210;-68
2022/08/09 07:37:44;;;;;;;18.42;3.08;;;26.60;95.30;;;;;;5053099;28;20199;-69
2022/08/09 07:40:16;;;;;;;3.50;2.10;;;26.80;95.20;;;;;;5052416;28;20273;-68
2022/08/09 07:42:47;;;;;;;4.90;2.20;;;27.00;94.90;;;;;;5052149;28;20287;-67
2022/08/09 07:45:15;;;;;;;4.55;2.20;;;27.10;94.50;;;;;;5052130;28;20480;-67
2022/08/09 07:48:02;;;;;;;4.93;2.38;;;27.20;94.10;;;;;;5058826;28;20259;-66
2022/08/09 07:50:30;;;;;;;3.08;2.10;;;26.90;94.20;;;;;;5071760;28;20670;-68
2022/08/09 07:53:02;;;;;;;4.50;2.05;;;26.80;94.10;;;;;;5070457;28;20194;-66
2022/08/09 07:55:30;;;;;;;3.90;2.30;;;26.50;94.30;;;;;;5070669;28;20206;-68
2022/08/09 07:58:17;;;;;;;6.57;2.13;;;26.60;94.50;;;;;;5071937;28;20251;-68
2022/08/09 08:00:47;;;;;;;2.50;2.00;;;26.60;94.80;;;;;;5072279;28;20225;-68
2022/08/09 08:03:24;;;;;;;3.85;2.10;;;26.80;94.60;;;;;;5061902;28;20225;-66
2022/08/09 08:05:52;;;;;;;2.75;1.80;;;26.70;94.90;;;;;;5051628;28;20225;-67
2022/08/09 08:08:24;;;;;;;4.18;2.35;;;26.60;94.90;;;;;;5052106;28;20191;-67
2022/08/09 08:11:11;;;;;;;4.60;2.35;;;26.70;95.10;;;;;;5051907;28;20261;-65
2022/08/09 08:13:57;;;;;;;6.85;2.47;;;26.80;95.00;;;;;;5051502;28;20639;-66
2022/08/09 08:16:25;;;;;;;5.00;2.28;;;26.90;95.20;;;;;;5068678;28;20733;-69
2022/08/09 08:18:58;;;;;;;3.95;2.10;;;27.10;95.50;;;;;;5071500;28;20213;-67
2022/08/09 08:21:29;;;;;;;5.57;2.05;;;27.10;94.70;;;;;;5059203;28;20195;-68
2022/08/09 08:23:56;;;;;;;6.75;2.47;;;26.80;94.70;;;;;;5051272;28;20576;-68
2022/08/09 08:26:26;;;;;;;8.90;2.72;;;26.70;95.20;;;;;;5051372;28;20603;-68
2022/08/09 08:29:13;;;;;;;3.03;2.15;;;26.50;95.50;;;;;;5051478;28;20272;-67
2022/08/09 08:31:46;;;;;;;4.60;2.70;;;26.60;95.60;;;;;;5050782;28;20252;-68
2022/08/09 08:34:30;;;;;;;3.15;1.92;;;26.80;95.70;;;;;;5050968;28;20199;-68
2022/08/09 08:36:59;;;;;;;8.13;2.38;;;27.00;95.10;;;;;;5051098;28;20493;-67
2022/08/09 08:39:27;;;;;;;4.80;2.55;;;27.10;94.90;;;;;;5051440;28;20202;-68
2022/08/09 08:41:54;;;;;;;7.03;2.47;;;27.20;95.10;;;;;;5051102;28;20293;-68
2022/08/09 08:44:27;;;;;;;3.13;2.50;;;27.40;95.00;;;;;;5050805;28;20290;-68
2022/08/09 08:46:57;;;;;;;4.22;2.22;;;27.50;94.50;;;;;;5051464;28;20214;-68
2022/08/09 08:49:31;;;;;;;6.38;2.45;;;27.50;94.40;;;;;;5051150;28;20257;-66
2022/08/09 08:52:15;;;;;;;4.22;2.08;;;27.50;94.60;;;;;;5051637;28;20513;-68
2022/08/09 08:55:02;;;;;;;5.18;2.47;;;27.60;94.30;;;;;;5051035;28;20292;-66
2022/08/09 08:57:31;;;;;;;5.60;2.20;;;27.60;94.00;;;;;;5051264;28;20258;-68
2022/08/09 09:00:02;;;;;;;7.13;2.63;;;27.60;94.30;;;;;;5051129;28;20207;-68
2022/08/09 09:02:39;;;;;;;4.20;2.22;;;27.80;94.40;;;;;;5051105;28;20281;-66
2022/08/09 09:05:07;;;;;;;4.40;2.13;;;28.00;94.10;;;;;;5050809;28;20272;-68
2022/08/09 09:07:38;;;;;;;3.75;1.98;;;27.80;93.60;;;;;;5050836;28;20215;-68
2022/08/09 09:10:10;;;;;;;4.43;2.30;;;27.80;93.90;;;;;;5050791;28;20214;-68
2022/08/09 09:12:37;;;;;;;3.60;2.10;;;28.00;93.70;;;;;;5050502;28;20618;-67
2022/08/09 09:15:04;;;;;;;4.28;2.00;;;27.90;93.70;;;;;;5050411;28;20211;-68
2022/08/09 09:17:34;;;;;;;3.45;2.30;;;28.00;93.50;;;;;;5050414;28;20203;-68
2022/08/09 09:20:15;;;;;;;4.07;2.58;;;28.20;93.40;;;;;;5052373;28;20599;-67
2022/08/09 09:22:54;;;;;;;6.35;2.20;;;28.30;93.10;;;;;;5050058;28;20191;-68
2022/08/09 09:25:42;;;;;;;4.25;2.40;;;28.40;93.10;;;;;;5050099;28;20456;-68
2022/08/09 09:28:33;;;;;;;2.92;2.10;;;28.60;93.00;;;;;;5050695;28;20236;-69
2022/08/09 09:31:22;;;;;;;4.30;2.50;;;28.60;92.80;;;;;;5050224;28;20249;-68
2022/08/09 09:34:13;;;;;;;9.85;2.35;;;28.70;92.90;;;;;;5035575;28;20191;-68
2022/08/09 09:36:44;;;;;;;5.47;2.10;;;28.80;92.60;;;;;;5052196;28;20634;-68
2022/08/09 09:39:25;;;;;;;3.90;2.20;;;28.80;92.20;;;;;;5049957;28;20194;-68
2022/08/09 09:42:24;;;;;;;5.55;1.95;;;28.70;92.20;;;;;;5050278;28;20199;-68
2022/08/09 09:44:57;;;;;;;5.57;2.53;;;28.60;92.60;;;;;;5050133;28;20221;-68
2022/08/09 09:47:25;;;;;;;4.30;2.40;;;28.70;92.80;;;;;;5049829;28;20603;-68
2022/08/09 09:49:56;;;;;;;3.60;2.42;;;28.80;92.80;;;;;;5049917;28;20298;-68
2022/08/09 09:52:53;;;;;;;2.40;2.05;;;28.90;92.20;;;;;;5035652;28;20231;-68
2022/08/09 09:55:23;;;;;;;2.78;2.33;;;29.00;92.10;;;;;;5049064;28;20408;-68
2022/08/09 09:58:01;;;;;;;3.33;2.25;;;29.00;91.80;;;;;;5070045;28;20217;-67
2022/08/09 10:00:56;;;;;;;4.07;2.28;;;29.00;92.20;;;;;;5069663;28;20600;-68
2022/08/09 10:03:42;;;;;;;7.10;2.00;;;29.20;92.00;;;;;;5053223;28;20264;-68
2022/08/09 10:06:22;;;;;;;5.10;2.15;;;29.30;91.50;;;;;;5055982;28;20424;-66
2022/08/09 10:08:57;;;;;;;4.50;2.33;;;29.10;91.10;;;;;;5050194;28;20191;-68
2022/08/09 10:11:29;;;;;;;6.30;2.30;;;29.20;91.80;;;;;;5049810;28;20201;-67
2022/08/09 10:14:29;;;;;;;4.70;2.08;;;29.50;91.50;;;;;;5050677;28;20477;-70
2022/08/09 10:17:11;;;;;;;8.65;3.75;;;29.60;91.10;;;;;;5049642;28;20701;-68
2022/08/09 10:19:59;;;;;;;4.38;2.10;;;29.70;90.90;;;;;;5049689;28;20195;-68
2022/08/09 10:22:34;;;;;;;2.35;1.92;;;29.80;91.10;;;;;;5037245;28;20198;-68
2022/08/09 10:25:06;;;;;;;5.47;2.10;;;29.80;91.30;;;;;;5049344;28;20215;-68
2022/08/09 10:27:39;;;;;;;4.35;2.28;;;29.80;90.70;;;;;;5049829;28;20237;-68
2022/08/09 10:30:24;;;;;;;2.25;1.90;;;29.40;90.80;;;;;;5049571;28;20191;-68
2022/08/09 10:33:10;;;;;;;5.13;1.88;;;29.40;90.70;;;;;;5049721;28;20552;-68
2022/08/09 10:35:58;;;;;;;2.60;1.90;;;29.20;90.50;;;;;;5034857;28;20222;-68
2022/08/09 10:38:28;;;;;;;2.45;2.10;;;29.20;91.10;;;;;;5049597;28;20562;-68
2022/08/09 10:41:17;;;;;;;2.33;1.80;;;29.20;90.40;;;;;;5050092;28;20206;-68
2022/08/09 10:43:46;;;;;;;4.88;2.20;;;29.20;90.50;;;;;;5049547;28;20193;-68
2022/08/09 10:47:02;;;;;;;2.92;2.00;;;29.40;90.60;;;;;;5049344;28;20237;-68
2022/08/09 10:50:00;;;;;;;6.38;2.10;;;29.70;90.40;;;;;;5049548;28;20199;-69
2022/08/09 10:52:51;;;;;;;4.45;2.13;;;30.00;90.30;;;;;;5049298;28;20190;-69
2022/08/09 10:55:29;;;;;;;3.17;2.00;;;30.20;90.00;;;;;;5052010;28;20264;-68
2022/08/09 10:58:45;;;;;;;2.88;1.90;;;30.10;88.30;;;;;;5052757;28;20685;-68
2022/08/09 11:01:30;;;;;;;2.45;2.00;;;29.90;88.70;;;;;;5033827;28;20206;-68
2022/08/09 11:04:21;;;;;;;3.88;2.00;;;29.90;89.60;;;;;;5052499;28;20190;-68
2022/08/09 11:06:57;;;;;;;3.78;1.83;;;30.10;87.90;;;;;;5052332;28;20207;-69
2022/08/09 11:09:38;;;;;;;3.78;1.90;;;30.00;88.00;;;;;;5052885;28;20604;-66
2022/08/09 11:12:16;;;;;;;2.65;1.90;;;30.00;86.10;;;;;;5052727;28;20226;-69
2022/08/09 11:14:50;;;;;;;2.25;1.75;;;29.80;87.80;;;;;;5051906;28;20215;-69
2022/08/09 11:17:17;;;;;;;5.30;1.90;;;29.80;86.10;;;;;;5052378;28;20203;-68
2022/08/09 11:19:55;;;;;;;5.82;1.63;;;29.90;88.00;;;;;;5052735;28;20199;-69
2022/08/09 11:22:45;;;;;;;2.95;1.80;;;29.90;85.80;;;;;;5042614;28;20259;-67
2022/08/09 11:25:27;;;;;;;3.95;1.58;;;29.90;88.10;;;;;;5052331;28;20236;-69
2022/08/09 11:28:37;;;;;;;2.63;1.80;;;30.10;85.90;;;;;;5052576;28;20215;-69
2022/08/09 11:31:40;;;;;;;3.38;1.67;;;30.40;85.10;;;;;;5052291;28;20199;-67
2022/08/09 11:34:40;;;;;;;2.83;2.00;;;30.60;85.20;;;;;;5051948;28;20635;-69
2022/08/09 11:37:10;;;;;;;2.33;1.63;;;30.60;85.50;;;;;;5052036;28;20625;-68
2022/08/09 11:40:02;;;;;;;3.25;1.90;;;30.50;85.50;;;;;;5035514;28;20220;-69
2022/08/09 11:42:49;;;;;;;2.03;1.80;;;30.40;85.10;;;;;;5052112;28;20197;-69
2022/08/09 11:45:24;;;;;;;2.45;1.92;;;30.20;85.40;;;;;;5051879;28;20306;-69
2022/08/09 11:48:17;;;;;;;4.45;2.08;;;29.80;86.20;;;;;;5051827;28;20326;-69
2022/08/09 11:51:01;;;;;;;3.67;1.73;;;29.70;86.20;;;;;;5051892;28;20199;-69
2022/08/09 11:54:08;;;;;;;1.95;1.80;;;29.90;86.20;;;;;;5051998;28;20198;-67
2022/08/09 11:56:38;;;;;;;5.25;2.08;;;30.10;86.10;;;;;;5051632;28;20660;-69
2022/08/09 11:59:10;;;;;;;3.90;2.78;;;30.40;85.80;;;;;;5058445;28;20218;-68
2022/08/09 12:01:39;;;;;;;3.85;2.35;;;30.50;85.00;;;;;;5051542;28;20751;-68
2022/08/09 12:04:27;;;;;;;2.28;1.70;;;30.50;85.20;;;;;;5051539;28;20203;-69
2022/08/09 12:07:03;;;;;;;4.50;2.00;;;30.70;85.40;;;;;;5050589;28;20767;-68
2022/08/09 12:09:34;;;;;;;2.50;1.88;;;30.70;84.80;;;;;;5051779;28;20270;-69
2022/08/09 12:12:08;;;;;;;2.20;2.00;;;30.40;85.30;;;;;;5051603;28;20214;-67
2022/08/09 12:14:38;;;;;;;3.90;1.70;;;30.40;85.60;;;;;;5050829;28;20297;-69
2022/08/09 12:17:25;;;;;;;5.15;2.10;;;30.60;86.30;;;;;;5051481;28;20211;-68
2022/08/09 12:20:12;;;;;;;3.45;2.03;;;30.70;85.80;;;;;;5051637;28;20201;-70
2022/08/09 12:22:55;;;;;;;2.70;1.98;;;30.60;84.70;;;;;;5050973;28;20289;-68
2022/08/09 12:25:23;;;;;;;4.72;1.90;;;30.50;84.70;;;;;;5050907;28;20218;-68
2022/08/09 12:28:15;;;;;;;1.83;1.63;;;30.70;84.90;;;;;;5051188;28;20257;-69
2022/08/09 12:31:02;;;;;;;3.65;2.00;;;30.80;84.30;;;;;;5051016;28;20721;-68
2022/08/09 12:33:50;;;;;;;4.05;2.08;;;30.80;85.10;;;;;;5051647;28;20195;-68
2022/08/09 12:36:27;;;;;;;5.57;1.95;;;30.80;84.90;;;;;;5050698;28;20216;-69
2022/08/09 12:39:01;;;;;;;2.22;1.98;;;31.00;85.60;;;;;;5051364;28;20201;-69
2022/08/09 12:41:32;;;;;;;2.00;1.77;;;31.10;83.40;;;;;;5059190;28;20289;-69
2022/08/09 12:44:06;;;;;;;2.38;1.90;;;31.40;83.20;;;;;;5050882;28;20240;-66
2022/08/09 12:46:43;;;;;;;3.28;1.80;;;31.30;82.70;;;;;;5050959;28;20298;-69
2022/08/09 12:49:16;;;;;;;2.13;1.55;;;31.40;83.90;;;;;;5050831;28;20282;-68
2022/08/09 12:51:57;;;;;;;1.70;1.60;;;31.50;83.20;;;;;;5050429;28;20265;-69
2022/08/09 12:54:48;;;;;;;3.55;1.80;;;31.70;82.50;;;;;;5050116;28;20223;-68
2022/08/09 12:57:36;;;;;;;1.80;1.70;;;31.40;82.20;;;;;;5050600;28;20280;-69
2022/08/09 13:00:20;;;;;;;2.33;1.80;;;31.20;83.20;;;;;;5050371;28;20640;-68
2022/08/09 13:02:59;;;;;;;2.95;1.90;;;31.00;83.70;;;;;;5050999;28;20203;-69
2022/08/09 13:05:39;;;;;;;3.42;1.77;;;30.90;83.80;;;;;;5050555;28;20210;-69
2022/08/09 13:08:26;;;;;;;4.95;1.90;;;30.90;83.40;;;;;;5050145;28;20242;-70
2022/08/09 13:11:06;;;;;;;2.20;1.60;;;31.20;84.60;;;;;;5050475;28;20277;-70
2022/08/09 13:13:55;;;;;;;1.50;1.40;;;31.60;83.80;;;;;;5050215;28;20692;-69
2022/08/09 13:16:54;;;;;;;4.43;1.50;;;31.70;81.50;;;;;;5044925;28;20248;-68
2022/08/09 13:19:35;;;;;;;1.55;1.45;;;31.50;80.90;;;;;;5070361;28;20232;-68
2022/08/09 13:22:24;;;;;;;2.17;1.40;;;31.50;81.40;;;;;;5070237;28;20198;-68
2022/08/09 13:25:10;;;;;;;1.70;1.60;;;31.60;80.40;;;;;;5062907;28;20640;-68
2022/08/09 13:27:40;;;;;;;3.22;1.80;;;31.60;81.00;;;;;;5050068;28;20246;-69
2022/08/09 13:30:23;;;;;;;2.97;1.90;;;31.50;81.90;;;;;;5050148;28;20286;-68
2022/08/09 13:33:19;;;;;;;2.45;1.73;;;31.60;81.90;;;;;;5050726;28;20244;-69
2022/08/09 13:35:48;;;;;;;4.25;1.77;;;31.50;81.80;;;;;;5049687;28;20283;-69
2022/08/09 13:38:35;;;;;;;1.85;1.55;;;31.50;83.10;;;;;;5050084;28;20203;-69